sensor_id;sensor_type;location;lat;lon;timestamp;pressure;altitude;pressure_sealevel;temperature;humidity
77749;BME280;66938;52.084;5.228;2023-03-14T00:01:27;98983.0;;;10.96;75.99
77749;BME280;66938;52.084;5.228;2023-03-14T00:03:03;98983.0;;;11.0;75.05
77749;BME280;66938;52.084;5.228;2023-03-14T00:04:39;98988.0;;;11.07;75.05
77749;BME280;66938;52.084;5.228;2023-03-14T00:07:53;98987.0;;;11.06;74.92
77749;BME280;66938;52.084;5.228;2023-03-14T00:09:29;98985.0;;;11.03;74.64
77749;BME280;66938;52.084;5.228;2023-03-14T00:11:07;98983.0;;;11.14;74.99
77749;BME280;66938;52.084;5.228;2023-03-14T00:12:44;98980.0;;;11.14;74.52
77749;BME280;66938;52.084;5.228;2023-03-14T00:16:02;98981.0;;;11.26;74.62
77749;BME280;66938;52.084;5.228;2023-03-14T00:17:39;98978.0;;;11.24;74.47
77749;BME280;66938;52.084;5.228;2023-03-14T00:19:15;98984.0;;;11.28;73.74
77749;BME280;66938;52.084;5.228;2023-03-14T00:22:29;98983.0;;;11.27;74.19
77749;BME280;66938;52.084;5.228;2023-03-14T00:24:06;98985.0;;;11.18;73.48
77749;BME280;66938;52.084;5.228;2023-03-14T00:25:43;98980.0;;;11.22;73.41
77749;BME280;66938;52.084;5.228;2023-03-14T00:27:19;98978.0;;;11.11;73.58
77749;BME280;66938;52.084;5.228;2023-03-14T00:30:31;98977.0;;;11.13;72.55
77749;BME280;66938;52.084;5.228;2023-03-14T00:32:07;98976.0;;;11.15;72.49
77749;BME280;66938;52.084;5.228;2023-03-14T00:33:44;98981.0;;;11.28;72.58
77749;BME280;66938;52.084;5.228;2023-03-14T00:36:57;98982.0;;;11.14;72.28
77749;BME280;66938;52.084;5.228;2023-03-14T00:38:33;98988.0;;;11.21;71.44
77749;BME280;66938;52.084;5.228;2023-03-14T00:40:10;98993.0;;;11.24;71.61
77749;BME280;66938;52.084;5.228;2023-03-14T00:43:23;98993.0;;;11.14;71.86
77749;BME280;66938;52.084;5.228;2023-03-14T00:44:59;98987.0;;;11.26;71.11
77749;BME280;66938;52.084;5.228;2023-03-14T00:46:35;98983.0;;;11.23;71.61
77749;BME280;66938;52.084;5.228;2023-03-14T00:48:11;98981.0;;;11.29;71.27
77749;BME280;66938;52.084;5.228;2023-03-14T00:51:24;98983.0;;;11.29;71.23
77749;BME280;66938;52.084;5.228;2023-03-14T00:53:00;98978.0;;;11.33;71.24
77749;BME280;66938;52.084;5.228;2023-03-14T00:54:36;98988.0;;;11.4;71.42
77749;BME280;66938;52.084;5.228;2023-03-14T00:57:49;98999.0;;;11.16;71.8
77749;BME280;66938;52.084;5.228;2023-03-14T00:59:25;98988.0;;;11.17;72.86
77749;BME280;66938;52.084;5.228;2023-03-14T01:01:05;98993.0;;;11.02;73.41
77749;BME280;66938;52.084;5.228;2023-03-14T01:04:20;98993.0;;;10.96;74.08
77749;BME280;66938;52.084;5.228;2023-03-14T01:06:06;98995.0;;;10.83;74.56
77749;BME280;66938;52.084;5.228;2023-03-14T01:07:42;98989.0;;;10.89;74.8
77749;BME280;66938;52.084;5.228;2023-03-14T01:09:18;98995.0;;;10.86;74.83
77749;BME280;66938;52.084;5.228;2023-03-14T01:12:31;99000.0;;;10.8;75.41
77749;BME280;66938;52.084;5.228;2023-03-14T01:14:07;98995.0;;;10.59;76.27
77749;BME280;66938;52.084;5.228;2023-03-14T01:15:43;98998.0;;;10.58;76.81
77749;BME280;66938;52.084;5.228;2023-03-14T01:18:55;99008.0;;;10.44;77.87
77749;BME280;66938;52.084;5.228;2023-03-14T01:20:31;99008.0;;;10.41;78.34
77749;BME280;66938;52.084;5.228;2023-03-14T01:22:08;99010.0;;;10.36;78.77
77749;BME280;66938;52.084;5.228;2023-03-14T01:23:46;99005.0;;;10.19;79.3
77749;BME280;66938;52.084;5.228;2023-03-14T01:26:58;99009.0;;;10.26;79.47
77749;BME280;66938;52.084;5.228;2023-03-14T01:28:34;99010.0;;;10.15;79.83
77749;BME280;66938;52.084;5.228;2023-03-14T01:30:12;99005.0;;;10.15;79.73
77749;BME280;66938;52.084;5.228;2023-03-14T01:33:25;99005.0;;;10.17;79.66
77749;BME280;66938;52.084;5.228;2023-03-14T01:35:02;99005.0;;;10.27;79.52
77749;BME280;66938;52.084;5.228;2023-03-14T01:36:38;99006.0;;;10.17;79.56
77749;BME280;66938;52.084;5.228;2023-03-14T01:39:50;98992.0;;;10.14;79.64
77749;BME280;66938;52.084;5.228;2023-03-14T01:41:26;98989.0;;;10.21;79.36
77749;BME280;66938;52.084;5.228;2023-03-14T01:43:13;98994.0;;;10.27;79.27
77749;BME280;66938;52.084;5.228;2023-03-14T01:44:52;98995.0;;;10.36;78.67
77749;BME280;66938;52.084;5.228;2023-03-14T01:48:12;98984.0;;;10.31;78.61
77749;BME280;66938;52.084;5.228;2023-03-14T01:49:51;98989.0;;;10.36;78.63
77749;BME280;66938;52.084;5.228;2023-03-14T01:51:34;98980.0;;;10.44;77.97
77749;BME280;66938;52.084;5.228;2023-03-14T01:53:12;98981.0;;;10.41;78.02
77749;BME280;66938;52.084;5.228;2023-03-14T01:56:30;98988.0;;;10.31;77.83
77749;BME280;66938;52.084;5.228;2023-03-14T01:58:08;98983.0;;;10.42;77.84
77749;BME280;66938;52.084;5.228;2023-03-14T01:59:47;98976.0;;;10.4;77.77
77749;BME280;66938;52.084;5.228;2023-03-14T02:01:26;98970.0;;;10.49;77.34
77749;BME280;66938;52.084;5.228;2023-03-14T02:04:51;98965.0;;;10.33;77.19
77749;BME280;66938;52.084;5.228;2023-03-14T02:06:32;98962.0;;;10.38;77.24
77749;BME280;66938;52.084;5.228;2023-03-14T02:08:14;98962.0;;;10.31;77.56
77749;BME280;66938;52.084;5.228;2023-03-14T02:09:54;98973.0;;;10.38;77.27
77749;BME280;66938;52.084;5.228;2023-03-14T02:13:10;98978.0;;;10.3;77.41
77749;BME280;66938;52.084;5.228;2023-03-14T02:14:47;98967.0;;;10.24;77.63
77749;BME280;66938;52.084;5.228;2023-03-14T02:16:24;98969.0;;;10.28;77.47
77749;BME280;66938;52.084;5.228;2023-03-14T02:19:50;98962.0;;;10.23;77.88
77749;BME280;66938;52.084;5.228;2023-03-14T02:21:41;98964.0;;;10.31;77.72
77749;BME280;66938;52.084;5.228;2023-03-14T02:23:32;98953.0;;;10.41;77.11
77749;BME280;66938;52.084;5.228;2023-03-14T02:25:13;98949.0;;;10.49;77.33
77749;BME280;66938;52.084;5.228;2023-03-14T02:27:25;98952.0;;;10.46;77.0
77749;BME280;66938;52.084;5.228;2023-03-14T02:29:01;98937.0;;;10.34;77.2
77749;BME280;66938;52.084;5.228;2023-03-14T02:32:16;98939.0;;;10.47;77.0
77749;BME280;66938;52.084;5.228;2023-03-14T02:33:54;98939.0;;;10.31;77.12
77749;BME280;66938;52.084;5.228;2023-03-14T02:35:34;98940.0;;;10.43;76.87
77749;BME280;66938;52.084;5.228;2023-03-14T02:37:17;98940.0;;;10.41;77.0
77749;BME280;66938;52.084;5.228;2023-03-14T02:40:42;98944.0;;;10.44;76.97
77749;BME280;66938;52.084;5.228;2023-03-14T02:42:20;98939.0;;;10.51;76.66
77749;BME280;66938;52.084;5.228;2023-03-14T02:43:57;98937.0;;;10.47;76.75
77749;BME280;66938;52.084;5.228;2023-03-14T02:45:40;98942.0;;;10.48;77.31
77749;BME280;66938;52.084;5.228;2023-03-14T02:49:01;98943.0;;;10.52;76.86
77749;BME280;66938;52.084;5.228;2023-03-14T02:50:41;98938.0;;;10.6;76.66
77749;BME280;66938;52.084;5.228;2023-03-14T02:52:17;98938.0;;;10.58;76.63
77749;BME280;66938;52.084;5.228;2023-03-14T02:53:53;98933.0;;;10.55;76.78
77749;BME280;66938;52.084;5.228;2023-03-14T02:57:05;98926.0;;;10.67;76.36
77749;BME280;66938;52.084;5.228;2023-03-14T02:58:41;98923.0;;;10.55;76.61
77749;BME280;66938;52.084;5.228;2023-03-14T03:00:18;98932.0;;;10.58;76.5
77749;BME280;66938;52.084;5.228;2023-03-14T03:03:31;98926.0;;;10.64;76.42
77749;BME280;66938;52.084;5.228;2023-03-14T03:05:07;98926.0;;;10.57;76.78
77749;BME280;66938;52.084;5.228;2023-03-14T03:06:43;98935.0;;;10.65;76.52
77749;BME280;66938;52.084;5.228;2023-03-14T03:08:21;98936.0;;;10.59;76.81
77749;BME280;66938;52.084;5.228;2023-03-14T03:11:33;98934.0;;;10.63;76.45
77749;BME280;66938;52.084;5.228;2023-03-14T03:13:10;98930.0;;;10.51;76.86
77749;BME280;66938;52.084;5.228;2023-03-14T03:14:46;98925.0;;;10.59;76.69
77749;BME280;66938;52.084;5.228;2023-03-14T03:17:58;98916.0;;;10.67;76.42
77749;BME280;66938;52.084;5.228;2023-03-14T03:19:34;98925.0;;;10.67;76.23
77749;BME280;66938;52.084;5.228;2023-03-14T03:21:11;98918.0;;;10.67;76.17
77749;BME280;66938;52.084;5.228;2023-03-14T03:24:23;98918.0;;;10.7;76.3
77749;BME280;66938;52.084;5.228;2023-03-14T03:26:00;98921.0;;;10.6;76.16
77749;BME280;66938;52.084;5.228;2023-03-14T03:27:37;98913.0;;;10.59;76.41
77749;BME280;66938;52.084;5.228;2023-03-14T03:29:14;98913.0;;;10.52;76.64
77749;BME280;66938;52.084;5.228;2023-03-14T03:32:26;98909.0;;;10.42;76.74
77749;BME280;66938;52.084;5.228;2023-03-14T03:34:03;98906.0;;;10.54;76.28
77749;BME280;66938;52.084;5.228;2023-03-14T03:35:43;98905.0;;;10.49;76.25
77749;BME280;66938;52.084;5.228;2023-03-14T03:38:56;98892.0;;;10.64;75.87
77749;BME280;66938;52.084;5.228;2023-03-14T03:40:32;98894.0;;;10.66;75.83
77749;BME280;66938;52.084;5.228;2023-03-14T03:42:09;98898.0;;;10.62;75.55
77749;BME280;66938;52.084;5.228;2023-03-14T03:45:21;98906.0;;;10.66;75.58
77749;BME280;66938;52.084;5.228;2023-03-14T03:46:57;98906.0;;;10.58;75.74
77749;BME280;66938;52.084;5.228;2023-03-14T03:48:34;98901.0;;;10.63;75.8
77749;BME280;66938;52.084;5.228;2023-03-14T03:50:10;98900.0;;;10.57;75.62
77749;BME280;66938;52.084;5.228;2023-03-14T03:53:23;98891.0;;;10.65;75.34
77749;BME280;66938;52.084;5.228;2023-03-14T03:54:59;98901.0;;;10.71;75.19
77749;BME280;66938;52.084;5.228;2023-03-14T03:56:35;98896.0;;;10.76;74.59
77749;BME280;66938;52.084;5.228;2023-03-14T03:59:47;98893.0;;;10.76;74.92
77749;BME280;66938;52.084;5.228;2023-03-14T04:01:23;98894.0;;;10.71;74.61
77749;BME280;66938;52.084;5.228;2023-03-14T04:02:59;98900.0;;;10.81;74.28
77749;BME280;66938;52.084;5.228;2023-03-14T04:06:13;98893.0;;;10.61;74.8
77749;BME280;66938;52.084;5.228;2023-03-14T04:07:49;98902.0;;;10.53;74.42
77749;BME280;66938;52.084;5.228;2023-03-14T04:09:25;98898.0;;;10.58;74.72
77749;BME280;66938;52.084;5.228;2023-03-14T04:12:39;98894.0;;;10.59;74.52
77749;BME280;66938;52.084;5.228;2023-03-14T04:14:15;98898.0;;;10.64;74.33
77749;BME280;66938;52.084;5.228;2023-03-14T04:15:52;98893.0;;;10.8;74.19
77749;BME280;66938;52.084;5.228;2023-03-14T04:17:28;98890.0;;;10.76;74.28
77749;BME280;66938;52.084;5.228;2023-03-14T04:20:41;98895.0;;;10.8;74.08
77749;BME280;66938;52.084;5.228;2023-03-14T04:22:17;98895.0;;;10.97;73.62
77749;BME280;66938;52.084;5.228;2023-03-14T04:23:53;98896.0;;;10.98;73.83
77749;BME280;66938;52.084;5.228;2023-03-14T04:27:06;98898.0;;;10.91;73.83
77749;BME280;66938;52.084;5.228;2023-03-14T04:28:42;98898.0;;;10.97;73.8
77749;BME280;66938;52.084;5.228;2023-03-14T04:30:19;98905.0;;;11.03;73.42
77749;BME280;66938;52.084;5.228;2023-03-14T04:33:32;98905.0;;;11.1;73.5
77749;BME280;66938;52.084;5.228;2023-03-14T04:35:08;98898.0;;;10.98;73.55
77749;BME280;66938;52.084;5.228;2023-03-14T04:36:44;98897.0;;;10.98;73.41
77749;BME280;66938;52.084;5.228;2023-03-14T04:38:20;98893.0;;;10.89;74.2
77749;BME280;66938;52.084;5.228;2023-03-14T04:41:32;98885.0;;;10.89;74.13
77749;BME280;66938;52.084;5.228;2023-03-14T04:43:10;98882.0;;;10.95;74.22
77749;BME280;66938;52.084;5.228;2023-03-14T04:44:46;98881.0;;;10.99;73.91
77749;BME280;66938;52.084;5.228;2023-03-14T04:47:59;98878.0;;;11.11;73.61
77749;BME280;66938;52.084;5.228;2023-03-14T04:49:35;98878.0;;;11.07;73.78
77749;BME280;66938;52.084;5.228;2023-03-14T04:51:11;98880.0;;;11.1;73.53
77749;BME280;66938;52.084;5.228;2023-03-14T04:54:23;98883.0;;;11.0;73.97
77749;BME280;66938;52.084;5.228;2023-03-14T04:55:59;98885.0;;;11.09;73.75
77749;BME280;66938;52.084;5.228;2023-03-14T04:57:36;98880.0;;;11.12;73.69
77749;BME280;66938;52.084;5.228;2023-03-14T04:59:13;98884.0;;;11.13;74.05
77749;BME280;66938;52.084;5.228;2023-03-14T05:02:26;98882.0;;;11.09;74.53
77749;BME280;66938;52.084;5.228;2023-03-14T05:04:02;98881.0;;;11.01;75.42
77749;BME280;66938;52.084;5.228;2023-03-14T05:05:38;98885.0;;;11.0;75.73
77749;BME280;66938;52.084;5.228;2023-03-14T05:08:50;98882.0;;;10.98;75.88
77749;BME280;66938;52.084;5.228;2023-03-14T05:10:26;98884.0;;;10.93;76.94
77749;BME280;66938;52.084;5.228;2023-03-14T05:12:03;98877.0;;;10.88;76.94
77749;BME280;66938;52.084;5.228;2023-03-14T05:15:15;98869.0;;;10.97;76.92
77749;BME280;66938;52.084;5.228;2023-03-14T05:16:51;98872.0;;;10.85;76.94
77749;BME280;66938;52.084;5.228;2023-03-14T05:18:27;98870.0;;;10.79;77.5
77749;BME280;66938;52.084;5.228;2023-03-14T05:21:40;98872.0;;;10.74;77.91
77749;BME280;66938;52.084;5.228;2023-03-14T05:23:16;98866.0;;;10.82;77.94
77749;BME280;66938;52.084;5.228;2023-03-14T05:24:53;98861.0;;;10.8;78.06
77749;BME280;66938;52.084;5.228;2023-03-14T05:26:29;98859.0;;;10.8;78.0
77749;BME280;66938;52.084;5.228;2023-03-14T05:29:42;98861.0;;;10.61;78.41
77749;BME280;66938;52.084;5.228;2023-03-14T05:31:18;98858.0;;;10.63;78.47
77749;BME280;66938;52.084;5.228;2023-03-14T05:32:54;98858.0;;;10.76;78.16
77749;BME280;66938;52.084;5.228;2023-03-14T05:36:08;98862.0;;;10.72;78.61
77749;BME280;66938;52.084;5.228;2023-03-14T05:37:44;98860.0;;;10.72;78.52
77749;BME280;66938;52.084;5.228;2023-03-14T05:39:20;98870.0;;;10.71;78.56
77749;BME280;66938;52.084;5.228;2023-03-14T05:42:33;98858.0;;;10.68;78.86
77749;BME280;66938;52.084;5.228;2023-03-14T05:44:09;98855.0;;;10.61;78.77
77749;BME280;66938;52.084;5.228;2023-03-14T05:45:45;98857.0;;;10.6;79.16
77749;BME280;66938;52.084;5.228;2023-03-14T05:47:21;98855.0;;;10.53;79.38
77749;BME280;66938;52.084;5.228;2023-03-14T05:50:35;98861.0;;;10.51;79.5
77749;BME280;66938;52.084;5.228;2023-03-14T05:52:12;98865.0;;;10.38;80.03
77749;BME280;66938;52.084;5.228;2023-03-14T05:53:48;98856.0;;;10.45;79.87
77749;BME280;66938;52.084;5.228;2023-03-14T05:57:01;98861.0;;;10.35;80.24
77749;BME280;66938;52.084;5.228;2023-03-14T05:58:37;98862.0;;;10.33;80.44
77749;BME280;66938;52.084;5.228;2023-03-14T06:00:14;98857.0;;;10.27;80.77
77749;BME280;66938;52.084;5.228;2023-03-14T06:03:26;98855.0;;;10.25;80.74
77749;BME280;66938;52.084;5.228;2023-03-14T06:05:04;98853.0;;;10.26;80.89
77749;BME280;66938;52.084;5.228;2023-03-14T06:06:41;98860.0;;;10.35;80.72
77749;BME280;66938;52.084;5.228;2023-03-14T06:08:17;98862.0;;;10.29;80.81
77749;BME280;66938;52.084;5.228;2023-03-14T06:11:29;98867.0;;;10.23;81.11
77749;BME280;66938;52.084;5.228;2023-03-14T06:13:05;98869.0;;;10.32;81.06
77749;BME280;66938;52.084;5.228;2023-03-14T06:14:41;98868.0;;;10.44;80.77
77749;BME280;66938;52.084;5.228;2023-03-14T06:17:54;98867.0;;;10.42;80.97
77749;BME280;66938;52.084;5.228;2023-03-14T06:19:31;98860.0;;;10.4;81.05
77749;BME280;66938;52.084;5.228;2023-03-14T06:21:07;98865.0;;;10.44;80.83
77749;BME280;66938;52.084;5.228;2023-03-14T06:24:20;98867.0;;;10.32;81.41
77749;BME280;66938;52.084;5.228;2023-03-14T06:25:56;98886.0;;;10.36;81.13
77749;BME280;66938;52.084;5.228;2023-03-14T06:27:32;98919.0;;;10.31;81.44
77749;BME280;66938;52.084;5.228;2023-03-14T06:29:10;98934.0;;;10.41;80.89
77749;BME280;66938;52.084;5.228;2023-03-14T06:32:22;98940.0;;;10.31;80.0
77749;BME280;66938;52.084;5.228;2023-03-14T06:33:58;98955.0;;;10.31;79.13
77749;BME280;66938;52.084;5.228;2023-03-14T06:35:35;98958.0;;;10.13;78.44
77749;BME280;66938;52.084;5.228;2023-03-14T06:38:47;98969.0;;;9.86;77.83
77749;BME280;66938;52.084;5.228;2023-03-14T06:40:23;98986.0;;;9.56;77.58
77749;BME280;66938;52.084;5.228;2023-03-14T06:41:59;98992.0;;;9.43;78.08
77749;BME280;66938;52.084;5.228;2023-03-14T06:45:12;98998.0;;;9.51;78.34
77749;BME280;66938;52.084;5.228;2023-03-14T06:46:49;99001.0;;;9.49;78.25
77749;BME280;66938;52.084;5.228;2023-03-14T06:48:25;99006.0;;;9.44;78.8
77749;BME280;66938;52.084;5.228;2023-03-14T06:51:39;99014.0;;;9.31;79.05
77749;BME280;66938;52.084;5.228;2023-03-14T06:53:16;99010.0;;;9.28;78.86
77749;BME280;66938;52.084;5.228;2023-03-14T06:54:52;99013.0;;;9.17;78.94
77749;BME280;66938;52.084;5.228;2023-03-14T06:56:29;99012.0;;;9.11;79.17
77749;BME280;66938;52.084;5.228;2023-03-14T06:59:41;99021.0;;;9.16;79.47
77749;BME280;66938;52.084;5.228;2023-03-14T07:01:21;99032.0;;;9.16;79.38
77749;BME280;66938;52.084;5.228;2023-03-14T07:02:58;99030.0;;;9.08;79.58
77749;BME280;66938;52.084;5.228;2023-03-14T07:06:10;99040.0;;;9.11;79.52
77749;BME280;66938;52.084;5.228;2023-03-14T07:07:46;99050.0;;;9.19;79.49
77749;BME280;66938;52.084;5.228;2023-03-14T07:09:23;99051.0;;;9.18;79.7
77749;BME280;66938;52.084;5.228;2023-03-14T07:10:59;99061.0;;;9.16;79.91
77749;BME280;66938;52.084;5.228;2023-03-14T07:14:11;99071.0;;;9.22;79.72
77749;BME280;66938;52.084;5.228;2023-03-14T07:15:47;99071.0;;;9.21;79.91
77749;BME280;66938;52.084;5.228;2023-03-14T07:17:23;99088.0;;;9.15;79.67
77749;BME280;66938;52.084;5.228;2023-03-14T07:20:36;99100.0;;;9.07;79.92
77749;BME280;66938;52.084;5.228;2023-03-14T07:22:13;99102.0;;;9.0;79.53
77749;BME280;66938;52.084;5.228;2023-03-14T07:23:49;99115.0;;;8.89;79.74
77749;BME280;66938;52.084;5.228;2023-03-14T07:27:02;99127.0;;;8.98;79.47
77749;BME280;66938;52.084;5.228;2023-03-14T07:28:38;99132.0;;;8.93;79.72
77749;BME280;66938;52.084;5.228;2023-03-14T07:30:15;99144.0;;;8.9;79.52
77749;BME280;66938;52.084;5.228;2023-03-14T07:33:26;99155.0;;;8.78;79.73
77749;BME280;66938;52.084;5.228;2023-03-14T07:35:03;99161.0;;;8.73;79.86
77749;BME280;66938;52.084;5.228;2023-03-14T07:36:40;99172.0;;;8.66;79.89
77749;BME280;66938;52.084;5.228;2023-03-14T07:38:16;99174.0;;;8.75;79.7
77749;BME280;66938;52.084;5.228;2023-03-14T07:41:28;99183.0;;;8.83;79.77
77749;BME280;66938;52.084;5.228;2023-03-14T07:43:04;99197.0;;;8.82;79.48
77749;BME280;66938;52.084;5.228;2023-03-14T07:44:41;99200.0;;;8.69;79.83
77749;BME280;66938;52.084;5.228;2023-03-14T07:47:53;99213.0;;;8.74;79.55
77749;BME280;66938;52.084;5.228;2023-03-14T07:49:28;99216.0;;;8.76;79.66
77749;BME280;66938;52.084;5.228;2023-03-14T07:51:05;99222.0;;;8.76;79.36
77749;BME280;66938;52.084;5.228;2023-03-14T07:54:17;99231.0;;;8.65;78.89
77749;BME280;66938;52.084;5.228;2023-03-14T07:55:53;99243.0;;;8.58;79.36
77749;BME280;66938;52.084;5.228;2023-03-14T07:57:29;99256.0;;;8.56;78.62
77749;BME280;66938;52.084;5.228;2023-03-14T07:59:06;99265.0;;;8.38;78.44
77749;BME280;66938;52.084;5.228;2023-03-14T08:02:19;99269.0;;;8.27;78.19
77749;BME280;66938;52.084;5.228;2023-03-14T08:03:55;99289.0;;;8.19;78.72
77749;BME280;66938;52.084;5.228;2023-03-14T08:05:34;99293.0;;;8.34;78.87
77749;BME280;66938;52.084;5.228;2023-03-14T08:08:46;99301.0;;;8.28;78.42
77749;BME280;66938;52.084;5.228;2023-03-14T08:10:22;99309.0;;;8.27;78.66
77749;BME280;66938;52.084;5.228;2023-03-14T08:11:58;99319.0;;;8.28;79.03
77749;BME280;66938;52.084;5.228;2023-03-14T08:15:13;99334.0;;;7.96;78.83
77749;BME280;66938;52.084;5.228;2023-03-14T08:16:49;99351.0;;;7.59;78.81
77749;BME280;66938;52.084;5.228;2023-03-14T08:18:26;99365.0;;;7.64;78.83
77749;BME280;66938;52.084;5.228;2023-03-14T08:20:03;99374.0;;;7.57;78.97
77749;BME280;66938;52.084;5.228;2023-03-14T08:23:16;99389.0;;;7.26;79.27
77749;BME280;66938;52.084;5.228;2023-03-14T08:24:51;99398.0;;;7.23;79.34
77749;BME280;66938;52.084;5.228;2023-03-14T08:26:27;99405.0;;;7.38;79.17
77749;BME280;66938;52.084;5.228;2023-03-14T08:29:41;99414.0;;;7.2;79.59
77749;BME280;66938;52.084;5.228;2023-03-14T08:31:17;99427.0;;;7.11;79.55
77749;BME280;66938;52.084;5.228;2023-03-14T08:32:53;99436.0;;;6.95;79.91
77749;BME280;66938;52.084;5.228;2023-03-14T08:36:10;99448.0;;;6.86;79.69
77749;BME280;66938;52.084;5.228;2023-03-14T08:37:46;99455.0;;;6.77;79.23
77749;BME280;66938;52.084;5.228;2023-03-14T08:39:22;99457.0;;;6.69;79.97
77749;BME280;66938;52.084;5.228;2023-03-14T08:41:00;99480.0;;;6.56;79.28
77749;BME280;66938;52.084;5.228;2023-03-14T08:44:14;99488.0;;;6.65;79.69
77749;BME280;66938;52.084;5.228;2023-03-14T08:45:50;99487.0;;;6.66;79.33
77749;BME280;66938;52.084;5.228;2023-03-14T08:47:26;99494.0;;;6.69;78.44
77749;BME280;66938;52.084;5.228;2023-03-14T08:50:39;99506.0;;;6.84;78.8
77749;BME280;66938;52.084;5.228;2023-03-14T08:52:17;99517.0;;;6.72;78.67
77749;BME280;66938;52.084;5.228;2023-03-14T08:53:52;99522.0;;;6.87;78.42
77749;BME280;66938;52.084;5.228;2023-03-14T08:57:05;99533.0;;;6.92;78.91
77749;BME280;66938;52.084;5.228;2023-03-14T08:58:41;99547.0;;;6.85;78.69
77749;BME280;66938;52.084;5.228;2023-03-14T09:00:19;99550.0;;;6.88;77.94
77749;BME280;66938;52.084;5.228;2023-03-14T09:01:55;99562.0;;;6.7;78.12
77749;BME280;66938;52.084;5.228;2023-03-14T09:05:08;99565.0;;;6.74;78.05
77749;BME280;66938;52.084;5.228;2023-03-14T09:06:44;99581.0;;;6.88;77.08
77749;BME280;66938;52.084;5.228;2023-03-14T09:08:21;99578.0;;;6.9;77.83
77749;BME280;66938;52.084;5.228;2023-03-14T09:11:33;99589.0;;;6.87;77.09
77749;BME280;66938;52.084;5.228;2023-03-14T09:13:09;99597.0;;;6.89;76.88
77749;BME280;66938;52.084;5.228;2023-03-14T09:14:45;99612.0;;;7.08;76.73
77749;BME280;66938;52.084;5.228;2023-03-14T09:17:57;99619.0;;;7.08;75.69
77749;BME280;66938;52.084;5.228;2023-03-14T09:19:34;99620.0;;;7.2;76.53
77749;BME280;66938;52.084;5.228;2023-03-14T09:21:10;99631.0;;;7.25;76.27
77749;BME280;66938;52.084;5.228;2023-03-14T09:22:46;99639.0;;;7.31;75.34
77749;BME280;66938;52.084;5.228;2023-03-14T09:25:58;99649.0;;;7.38;76.37
77749;BME280;66938;52.084;5.228;2023-03-14T09:27:35;99663.0;;;7.42;77.05
77749;BME280;66938;52.084;5.228;2023-03-14T09:29:11;99670.0;;;7.42;75.78
77749;BME280;66938;52.084;5.228;2023-03-14T09:32:23;99675.0;;;7.32;74.8
77749;BME280;66938;52.084;5.228;2023-03-14T09:33:59;99689.0;;;7.34;74.89
77749;BME280;66938;52.084;5.228;2023-03-14T09:35:36;99695.0;;;7.4;75.56
77749;BME280;66938;52.084;5.228;2023-03-14T09:38:48;99711.0;;;7.34;75.92
77749;BME280;66938;52.084;5.228;2023-03-14T09:40:31;99720.0;;;7.18;73.64
77749;BME280;66938;52.084;5.228;2023-03-14T09:42:13;99717.0;;;7.17;72.42
77749;BME280;66938;52.084;5.228;2023-03-14T09:43:56;99724.0;;;7.07;71.87
77749;BME280;66938;52.084;5.228;2023-03-14T09:47:18;99738.0;;;7.12;73.66
77749;BME280;66938;52.084;5.228;2023-03-14T09:48:55;99746.0;;;7.11;72.61
77749;BME280;66938;52.084;5.228;2023-03-14T09:50:36;99755.0;;;7.17;72.86
77749;BME280;66938;52.084;5.228;2023-03-14T09:52:15;99762.0;;;7.16;71.83
77749;BME280;66938;52.084;5.228;2023-03-14T09:55:32;99768.0;;;7.16;72.66
77749;BME280;66938;52.084;5.228;2023-03-14T09:57:11;99770.0;;;7.16;72.94
77749;BME280;66938;52.084;5.228;2023-03-14T09:58:52;99776.0;;;7.2;73.78
77749;BME280;66938;52.084;5.228;2023-03-14T10:00:31;99780.0;;;7.25;72.8
77749;BME280;66938;52.084;5.228;2023-03-14T10:03:54;99782.0;;;7.33;73.66
77749;BME280;66938;52.084;5.228;2023-03-14T10:05:32;99797.0;;;7.47;72.7
77749;BME280;66938;52.084;5.228;2023-03-14T10:07:13;99803.0;;;7.46;72.83
77749;BME280;66938;52.084;5.228;2023-03-14T10:08:50;99812.0;;;7.48;73.36
77749;BME280;66938;52.084;5.228;2023-03-14T10:12:03;99831.0;;;7.52;73.28
77749;BME280;66938;52.084;5.228;2023-03-14T10:13:48;99840.0;;;7.33;73.39
77749;BME280;66938;52.084;5.228;2023-03-14T10:15:29;99847.0;;;7.33;75.34
77749;BME280;66938;52.084;5.228;2023-03-14T10:18:46;99861.0;;;7.3;74.64
77749;BME280;66938;52.084;5.228;2023-03-14T10:20:28;99867.0;;;7.1;75.92
77749;BME280;66938;52.084;5.228;2023-03-14T10:22:10;99895.0;;;6.73;75.91
77749;BME280;66938;52.084;5.228;2023-03-14T10:23:50;99899.0;;;6.88;75.95
77749;BME280;66938;52.084;5.228;2023-03-14T10:27:18;99892.0;;;6.92;76.49
77749;BME280;66938;52.084;5.228;2023-03-14T10:29:02;99897.0;;;6.92;75.27
77749;BME280;66938;52.084;5.228;2023-03-14T10:30:44;99903.0;;;6.89;74.66
77749;BME280;66938;52.084;5.228;2023-03-14T10:32:22;99906.0;;;6.88;74.06
77749;BME280;66938;52.084;5.228;2023-03-14T10:34:04;99915.0;;;6.94;74.84
77749;BME280;66938;52.084;5.228;2023-03-14T10:37:21;99924.0;;;6.96;74.72
77749;BME280;66938;52.084;5.228;2023-03-14T10:39:15;99932.0;;;7.04;73.66
77749;BME280;66938;52.084;5.228;2023-03-14T10:40:53;99938.0;;;7.18;74.83
77749;BME280;66938;52.084;5.228;2023-03-14T10:42:32;99945.0;;;7.32;74.19
77749;BME280;66938;52.084;5.228;2023-03-14T10:45:52;99952.0;;;7.49;73.2
77749;BME280;66938;52.084;5.228;2023-03-14T10:47:31;99960.0;;;7.54;73.37
77749;BME280;66938;52.084;5.228;2023-03-14T10:49:26;99965.0;;;7.58;73.72
77749;BME280;66938;52.084;5.228;2023-03-14T10:51:05;99972.0;;;7.57;72.86
77749;BME280;66938;52.084;5.228;2023-03-14T10:52:48;99984.0;;;7.51;70.77
77749;BME280;66938;52.084;5.228;2023-03-14T10:56:06;100000.0;;;7.47;72.16
77749;BME280;66938;52.084;5.228;2023-03-14T10:57:43;100011.0;;;7.22;69.58
77749;BME280;66938;52.084;5.228;2023-03-14T10:59:19;100024.0;;;7.05;66.87
77749;BME280;66938;52.084;5.228;2023-03-14T11:02:57;100037.0;;;7.01;69.44
77749;BME280;66938;52.084;5.228;2023-03-14T11:04:55;100042.0;;;7.0;68.52
77749;BME280;66938;52.084;5.228;2023-03-14T11:06:40;100047.0;;;7.18;69.06
77749;BME280;66938;52.084;5.228;2023-03-14T11:08:24;100055.0;;;7.21;67.91
77749;BME280;66938;52.084;5.228;2023-03-14T11:10:14;100060.0;;;7.12;67.08
77749;BME280;66938;52.084;5.228;2023-03-14T11:11:54;100063.0;;;7.3;67.0
77749;BME280;66938;52.084;5.228;2023-03-14T11:13:44;100075.0;;;7.5;69.27
77749;BME280;66938;52.084;5.228;2023-03-14T11:17:15;100084.0;;;7.56;67.41
77749;BME280;66938;52.084;5.228;2023-03-14T11:19:22;100098.0;;;7.58;67.02